sensor_id;sensor_type;location;lat;lon;timestamp;P1;durP1;ratioP1;P2;durP2;ratioP2
60718;SDS011;46567;51.660;5.824;2023-05-16T00:02:02;6.9;;;2.0;;
60718;SDS011;46567;51.660;5.824;2023-05-16T00:07:02;9.0;;;2.1;;
60718;SDS011;46567;51.660;5.824;2023-05-16T00:12:02;9.4;;;2.1;;
60718;SDS011;46567;51.660;5.824;2023-05-16T00:17:02;7.9;;;2.4;;
60718;SDS011;46567;51.660;5.824;2023-05-16T00:22:02;8.6;;;2.4;;
60718;SDS011;46567;51.660;5.824;2023-05-16T00:27:02;8.3;;;2.3;;
60718;SDS011;46567;51.660;5.824;2023-05-16T00:32:02;9.5;;;2.2;;
60718;SDS011;46567;51.660;5.824;2023-05-16T00:37:02;11.6;;;2.4;;
60718;SDS011;46567;51.660;5.824;2023-05-16T00:42:02;11.3;;;2.2;;
60718;SDS011;46567;51.660;5.824;2023-05-16T00:47:02;11.1;;;2.1;;
60718;SDS011;46567;51.660;5.824;2023-05-16T00:52:02;13.9;;;2.0;;
60718;SDS011;46567;51.660;5.824;2023-05-16T00:57:02;16.5;;;2.6;;
60718;SDS011;46567;51.660;5.824;2023-05-16T01:02:02;9.0;;;2.1;;
60718;SDS011;46567;51.660;5.824;2023-05-16T01:07:02;11.3;;;2.5;;
60718;SDS011;46567;51.660;5.824;2023-05-16T01:12:13;8.0;;;2.1;;
60718;SDS011;46567;51.660;5.824;2023-05-16T01:17:07;13.5;;;2.2;;
60718;SDS011;46567;51.660;5.824;2023-05-16T01:22:11;9.5;;;2.2;;
60718;SDS011;46567;51.660;5.824;2023-05-16T01:27:02;12.4;;;1.9;;
60718;SDS011;46567;51.660;5.824;2023-05-16T01:32:02;15.7;;;2.7;;
60718;SDS011;46567;51.660;5.824;2023-05-16T01:37:12;13.5;;;2.6;;
60718;SDS011;46567;51.660;5.824;2023-05-16T01:42:08;9.5;;;1.8;;
60718;SDS011;46567;51.660;5.824;2023-05-16T01:47:02;7.5;;;2.0;;
60718;SDS011;46567;51.660;5.824;2023-05-16T01:52:04;11.5;;;2.4;;
60718;SDS011;46567;51.660;5.824;2023-05-16T01:57:02;13.1;;;2.1;;
60718;SDS011;46567;51.660;5.824;2023-05-16T02:02:02;12.5;;;2.8;;
60718;SDS011;46567;51.660;5.824;2023-05-16T02:07:02;12.0;;;2.8;;
60718;SDS011;46567;51.660;5.824;2023-05-16T02:12:02;11.1;;;2.1;;
60718;SDS011;46567;51.660;5.824;2023-05-16T02:17:02;8.7;;;2.1;;
60718;SDS011;46567;51.660;5.824;2023-05-16T02:22:02;8.7;;;2.3;;
60718;SDS011;46567;51.660;5.824;2023-05-16T02:27:02;7.9;;;2.1;;
60718;SDS011;46567;51.660;5.824;2023-05-16T02:32:02;10.2;;;2.3;;
60718;SDS011;46567;51.660;5.824;2023-05-16T02:37:02;7.9;;;2.3;;
60718;SDS011;46567;51.660;5.824;2023-05-16T02:42:02;15.1;;;2.6;;
60718;SDS011;46567;51.660;5.824;2023-05-16T02:47:02;13.9;;;2.0;;
60718;SDS011;46567;51.660;5.824;2023-05-16T02:52:02;10.7;;;2.1;;
60718;SDS011;46567;51.660;5.824;2023-05-16T02:57:02;12.9;;;2.6;;
60718;SDS011;46567;51.660;5.824;2023-05-16T03:02:02;12.6;;;2.0;;
60718;SDS011;46567;51.660;5.824;2023-05-16T03:07:02;10.4;;;2.1;;
60718;SDS011;46567;51.660;5.824;2023-05-16T03:12:02;10.2;;;2.1;;
60718;SDS011;46567;51.660;5.824;2023-05-16T03:17:02;10.2;;;2.1;;
60718;SDS011;46567;51.660;5.824;2023-05-16T03:22:02;7.6;;;1.9;;
60718;SDS011;46567;51.660;5.824;2023-05-16T03:27:02;8.7;;;2.1;;
60718;SDS011;46567;51.660;5.824;2023-05-16T03:32:02;8.7;;;2.0;;
60718;SDS011;46567;51.660;5.824;2023-05-16T03:37:02;12.6;;;2.4;;
60718;SDS011;46567;51.660;5.824;2023-05-16T03:42:02;9.4;;;2.5;;
60718;SDS011;46567;51.660;5.824;2023-05-16T03:47:02;8.6;;;1.6;;
60718;SDS011;46567;51.660;5.824;2023-05-16T03:52:02;8.4;;;1.8;;
60718;SDS011;46567;51.660;5.824;2023-05-16T03:57:02;11.2;;;1.9;;
60718;SDS011;46567;51.660;5.824;2023-05-16T04:02:02;15.5;;;2.1;;
60718;SDS011;46567;51.660;5.824;2023-05-16T04:07:02;11.5;;;2.2;;
60718;SDS011;46567;51.660;5.824;2023-05-16T04:12:02;11.9;;;2.0;;
60718;SDS011;46567;51.660;5.824;2023-05-16T04:17:02;7.0;;;1.5;;
60718;SDS011;46567;51.660;5.824;2023-05-16T04:22:02;6.4;;;1.7;;
60718;SDS011;46567;51.660;5.824;2023-05-16T04:27:02;9.4;;;1.9;;
60718;SDS011;46567;51.660;5.824;2023-05-16T04:32:02;11.6;;;2.3;;
60718;SDS011;46567;51.660;5.824;2023-05-16T04:37:02;12.5;;;1.8;;
60718;SDS011;46567;51.660;5.824;2023-05-16T04:42:02;9.0;;;2.0;;
60718;SDS011;46567;51.660;5.824;2023-05-16T04:47:02;9.4;;;2.0;;
60718;SDS011;46567;51.660;5.824;2023-05-16T04:52:02;10.6;;;2.4;;
60718;SDS011;46567;51.660;5.824;2023-05-16T04:57:02;7.3;;;1.9;;
60718;SDS011;46567;51.660;5.824;2023-05-16T05:02:02;9.6;;;2.0;;
60718;SDS011;46567;51.660;5.824;2023-05-16T05:07:02;5.1;;;1.5;;
60718;SDS011;46567;51.660;5.824;2023-05-16T05:17:02;11.3;;;2.3;;
60718;SDS011;46567;51.660;5.824;2023-05-16T05:22:02;10.6;;;1.8;;
60718;SDS011;46567;51.660;5.824;2023-05-16T05:27:02;10.5;;;2.5;;
60718;SDS011;46567;51.660;5.824;2023-05-16T05:32:02;13.6;;;2.4;;
60718;SDS011;46567;51.660;5.824;2023-05-16T05:37:02;8.0;;;2.4;;
60718;SDS011;46567;51.660;5.824;2023-05-16T05:42:02;7.1;;;2.1;;
60718;SDS011;46567;51.660;5.824;2023-05-16T05:47:02;8.9;;;1.9;;
60718;SDS011;46567;51.660;5.824;2023-05-16T05:52:02;10.6;;;1.9;;
60718;SDS011;46567;51.660;5.824;2023-05-16T05:57:02;10.0;;;1.9;;
60718;SDS011;46567;51.660;5.824;2023-05-16T06:02:02;8.2;;;2.0;;
60718;SDS011;46567;51.660;5.824;2023-05-16T06:07:02;8.8;;;2.0;;
60718;SDS011;46567;51.660;5.824;2023-05-16T06:12:02;8.6;;;1.8;;
60718;SDS011;46567;51.660;5.824;2023-05-16T06:17:02;13.9;;;2.3;;
60718;SDS011;46567;51.660;5.824;2023-05-16T06:22:02;9.9;;;2.0;;
60718;SDS011;46567;51.660;5.824;2023-05-16T06:27:02;7.8;;;1.8;;
60718;SDS011;46567;51.660;5.824;2023-05-16T06:32:02;7.0;;;1.6;;
60718;SDS011;46567;51.660;5.824;2023-05-16T06:37:02;12.2;;;2.1;;
60718;SDS011;46567;51.660;5.824;2023-05-16T06:42:02;10.1;;;1.7;;
60718;SDS011;46567;51.660;5.824;2023-05-16T06:47:02;8.8;;;1.7;;
60718;SDS011;46567;51.660;5.824;2023-05-16T06:52:02;6.9;;;1.2;;
60718;SDS011;46567;51.660;5.824;2023-05-16T06:57:02;6.6;;;1.5;;
60718;SDS011;46567;51.660;5.824;2023-05-16T07:02:02;7.8;;;1.7;;
60718;SDS011;46567;51.660;5.824;2023-05-16T07:07:02;7.2;;;2.0;;
60718;SDS011;46567;51.660;5.824;2023-05-16T07:12:02;5.7;;;1.3;;
60718;SDS011;46567;51.660;5.824;2023-05-16T07:17:02;8.4;;;1.7;;
60718;SDS011;46567;51.660;5.824;2023-05-16T07:22:02;6.8;;;1.6;;
60718;SDS011;46567;51.660;5.824;2023-05-16T07:27:02;6.3;;;1.5;;
60718;SDS011;46567;51.660;5.824;2023-05-16T07:32:02;6.5;;;1.2;;
60718;SDS011;46567;51.660;5.824;2023-05-16T07:37:02;6.4;;;1.5;;
60718;SDS011;46567;51.660;5.824;2023-05-16T07:42:02;6.5;;;1.2;;
60718;SDS011;46567;51.660;5.824;2023-05-16T07:47:02;4.9;;;1.2;;
60718;SDS011;46567;51.660;5.824;2023-05-16T07:52:02;4.3;;;1.1;;
60718;SDS011;46567;51.660;5.824;2023-05-16T07:57:02;15.9;;;1.6;;
60718;SDS011;46567;51.660;5.824;2023-05-16T08:02:02;5.3;;;1.0;;
60718;SDS011;46567;51.660;5.824;2023-05-16T08:07:02;10.5;;;1.3;;
60718;SDS011;46567;51.660;5.824;2023-05-16T08:12:02;5.1;;;1.2;;
60718;SDS011;46567;51.660;5.824;2023-05-16T08:17:02;5.4;;;1.1;;
60718;SDS011;46567;51.660;5.824;2023-05-16T08:22:02;5.7;;;1.2;;
60718;SDS011;46567;51.660;5.824;2023-05-16T08:27:02;2.3;;;0.7;;
60718;SDS011;46567;51.660;5.824;2023-05-16T08:32:02;4.8;;;0.9;;
60718;SDS011;46567;51.660;5.824;2023-05-16T08:37:02;4.3;;;0.9;;
60718;SDS011;46567;51.660;5.824;2023-05-16T08:42:02;5.8;;;1.9;;
60718;SDS011;46567;51.660;5.824;2023-05-16T08:47:04;5.3;;;1.1;;
60718;SDS011;46567;51.660;5.824;2023-05-16T08:52:04;5.7;;;1.3;;
60718;SDS011;46567;51.660;5.824;2023-05-16T08:57:02;3.8;;;0.8;;
60718;SDS011;46567;51.660;5.824;2023-05-16T09:02:02;7.4;;;0.9;;
60718;SDS011;46567;51.660;5.824;2023-05-16T09:07:02;4.1;;;0.8;;
60718;SDS011;46567;51.660;5.824;2023-05-16T09:12:02;3.0;;;0.8;;
60718;SDS011;46567;51.660;5.824;2023-05-16T09:17:02;5.3;;;1.2;;
60718;SDS011;46567;51.660;5.824;2023-05-16T09:22:02;4.3;;;1.2;;
60718;SDS011;46567;51.660;5.824;2023-05-16T09:27:06;5.2;;;1.5;;
60718;SDS011;46567;51.660;5.824;2023-05-16T09:32:04;4.4;;;1.1;;
60718;SDS011;46567;51.660;5.824;2023-05-16T09:37:02;5.8;;;0.9;;
60718;SDS011;46567;51.660;5.824;2023-05-16T09:42:02;9.0;;;1.8;;
60718;SDS011;46567;51.660;5.824;2023-05-16T09:47:02;2.6;;;0.8;;
60718;SDS011;46567;51.660;5.824;2023-05-16T09:52:02;3.6;;;0.7;;
60718;SDS011;46567;51.660;5.824;2023-05-16T09:57:02;2.6;;;0.8;;
60718;SDS011;46567;51.660;5.824;2023-05-16T10:02:02;6.3;;;0.9;;
60718;SDS011;46567;51.660;5.824;2023-05-16T10:07:03;6.2;;;1.3;;
60718;SDS011;46567;51.660;5.824;2023-05-16T10:12:03;2.6;;;0.8;;
60718;SDS011;46567;51.660;5.824;2023-05-16T10:17:03;3.7;;;1.1;;
60718;SDS011;46567;51.660;5.824;2023-05-16T10:22:03;3.4;;;1.1;;
60718;SDS011;46567;51.660;5.824;2023-05-16T10:27:02;3.2;;;1.1;;
60718;SDS011;46567;51.660;5.824;2023-05-16T10:32:02;3.3;;;0.9;;
60718;SDS011;46567;51.660;5.824;2023-05-16T10:37:02;4.8;;;1.1;;
60718;SDS011;46567;51.660;5.824;2023-05-16T10:42:02;3.8;;;1.0;;
60718;SDS011;46567;51.660;5.824;2023-05-16T10:47:02;4.4;;;1.2;;
60718;SDS011;46567;51.660;5.824;2023-05-16T10:52:07;3.8;;;1.1;;
60718;SDS011;46567;51.660;5.824;2023-05-16T10:57:03;4.8;;;1.0;;
60718;SDS011;46567;51.660;5.824;2023-05-16T11:02:02;5.8;;;0.9;;
60718;SDS011;46567;51.660;5.824;2023-05-16T11:07:02;3.1;;;0.9;;
60718;SDS011;46567;51.660;5.824;2023-05-16T11:12:02;3.4;;;0.8;;
60718;SDS011;46567;51.660;5.824;2023-05-16T11:17:05;4.3;;;0.9;;
60718;SDS011;46567;51.660;5.824;2023-05-16T11:22:32;2.3;;;0.8;;
60718;SDS011;46567;51.660;5.824;2023-05-16T11:27:02;3.6;;;0.7;;
60718;SDS011;46567;51.660;5.824;2023-05-16T11:32:02;3.4;;;0.8;;
60718;SDS011;46567;51.660;5.824;2023-05-16T11:37:02;2.3;;;0.9;;
60718;SDS011;46567;51.660;5.824;2023-05-16T11:42:02;2.9;;;0.8;;
60718;SDS011;46567;51.660;5.824;2023-05-16T11:47:02;3.6;;;1.2;;
60718;SDS011;46567;51.660;5.824;2023-05-16T11:52:02;4.5;;;1.0;;
60718;SDS011;46567;51.660;5.824;2023-05-16T11:57:02;3.5;;;1.0;;
60718;SDS011;46567;51.660;5.824;2023-05-16T12:02:03;3.6;;;0.9;;
60718;SDS011;46567;51.660;5.824;2023-05-16T12:07:02;3.6;;;1.2;;
60718;SDS011;46567;51.660;5.824;2023-05-16T12:12:03;3.9;;;1.3;;
60718;SDS011;46567;51.660;5.824;2023-05-16T12:17:02;3.4;;;1.0;;
60718;SDS011;46567;51.660;5.824;2023-05-16T12:22:02;4.0;;;1.2;;
60718;SDS011;46567;51.660;5.824;2023-05-16T12:27:02;3.7;;;0.9;;
60718;SDS011;46567;51.660;5.824;2023-05-16T12:32:02;3.1;;;1.0;;
60718;SDS011;46567;51.660;5.824;2023-05-16T12:37:02;4.0;;;1.0;;
60718;SDS011;46567;51.660;5.824;2023-05-16T12:42:03;3.3;;;1.0;;
60718;SDS011;46567;51.660;5.824;2023-05-16T12:47:02;3.3;;;1.0;;
60718;SDS011;46567;51.660;5.824;2023-05-16T12:52:02;3.1;;;1.0;;
60718;SDS011;46567;51.660;5.824;2023-05-16T12:57:02;4.7;;;1.2;;
60718;SDS011;46567;51.660;5.824;2023-05-16T13:02:02;5.1;;;1.2;;
60718;SDS011;46567;51.660;5.824;2023-05-16T13:07:02;2.7;;;1.1;;
60718;SDS011;46567;51.660;5.824;2023-05-16T13:12:02;5.5;;;1.2;;
60718;SDS011;46567;51.660;5.824;2023-05-16T13:17:02;3.2;;;1.0;;
60718;SDS011;46567;51.660;5.824;2023-05-16T13:22:02;6.5;;;1.2;;
60718;SDS011;46567;51.660;5.824;2023-05-16T13:27:02;3.9;;;1.1;;
60718;SDS011;46567;51.660;5.824;2023-05-16T13:32:02;3.0;;;1.1;;
60718;SDS011;46567;51.660;5.824;2023-05-16T13:37:02;3.5;;;0.9;;
60718;SDS011;46567;51.660;5.824;2023-05-16T13:42:02;4.1;;;0.8;;
60718;SDS011;46567;51.660;5.824;2023-05-16T13:47:02;4.8;;;0.9;;
60718;SDS011;46567;51.660;5.824;2023-05-16T13:52:02;2.0;;;0.8;;
60718;SDS011;46567;51.660;5.824;2023-05-16T13:57:02;4.0;;;0.9;;
60718;SDS011;46567;51.660;5.824;2023-05-16T14:02:02;5.5;;;1.1;;
60718;SDS011;46567;51.660;5.824;2023-05-16T14:07:02;4.5;;;1.1;;
60718;SDS011;46567;51.660;5.824;2023-05-16T14:12:02;3.5;;;1.0;;
60718;SDS011;46567;51.660;5.824;2023-05-16T14:17:02;7.8;;;1.0;;
60718;SDS011;46567;51.660;5.824;2023-05-16T14:22:02;5.1;;;1.1;;
60718;SDS011;46567;51.660;5.824;2023-05-16T14:27:02;5.4;;;1.1;;
60718;SDS011;46567;51.660;5.824;2023-05-16T14:32:02;2.7;;;0.7;;
60718;SDS011;46567;51.660;5.824;2023-05-16T14:37:02;6.8;;;1.4;;
60718;SDS011;46567;51.660;5.824;2023-05-16T14:42:02;7.6;;;1.2;;
60718;SDS011;46567;51.660;5.824;2023-05-16T14:47:02;2.7;;;0.9;;
60718;SDS011;46567;51.660;5.824;2023-05-16T14:52:02;8.3;;;1.1;;
60718;SDS011;46567;51.660;5.824;2023-05-16T14:57:02;4.7;;;1.1;;
60718;SDS011;46567;51.660;5.824;2023-05-16T15:02:02;3.9;;;1.1;;
60718;SDS011;46567;51.660;5.824;2023-05-16T15:07:02;5.4;;;1.4;;
60718;SDS011;46567;51.660;5.824;2023-05-16T15:12:02;4.6;;;1.1;;
60718;SDS011;46567;51.660;5.824;2023-05-16T15:17:02;5.0;;;1.2;;
60718;SDS011;46567;51.660;5.824;2023-05-16T15:22:02;5.5;;;1.1;;
60718;SDS011;46567;51.660;5.824;2023-05-16T15:27:02;5.7;;;1.1;;
60718;SDS011;46567;51.660;5.824;2023-05-16T15:32:03;4.6;;;1.2;;
60718;SDS011;46567;51.660;5.824;2023-05-16T15:37:02;3.1;;;1.1;;
60718;SDS011;46567;51.660;5.824;2023-05-16T15:42:02;3.3;;;1.4;;
60718;SDS011;46567;51.660;5.824;2023-05-16T15:47:02;4.8;;;1.1;;
60718;SDS011;46567;51.660;5.824;2023-05-16T15:52:02;4.3;;;1.2;;
60718;SDS011;46567;51.660;5.824;2023-05-16T15:57:02;3.6;;;1.2;;
60718;SDS011;46567;51.660;5.824;2023-05-16T16:02:02;4.6;;;1.4;;
60718;SDS011;46567;51.660;5.824;2023-05-16T16:07:02;6.5;;;1.3;;
60718;SDS011;46567;51.660;5.824;2023-05-16T16:12:02;6.0;;;1.2;;
60718;SDS011;46567;51.660;5.824;2023-05-16T16:17:02;7.2;;;1.1;;
60718;SDS011;46567;51.660;5.824;2023-05-16T16:22:02;4.3;;;1.0;;
60718;SDS011;46567;51.660;5.824;2023-05-16T16:27:02;7.7;;;1.6;;
60718;SDS011;46567;51.660;5.824;2023-05-16T16:32:02;4.4;;;1.1;;
60718;SDS011;46567;51.660;5.824;2023-05-16T16:37:02;5.4;;;1.6;;
60718;SDS011;46567;51.660;5.824;2023-05-16T16:42:02;6.3;;;1.2;;
60718;SDS011;46567;51.660;5.824;2023-05-16T16:47:02;7.1;;;1.1;;
60718;SDS011;46567;51.660;5.824;2023-05-16T16:52:02;3.7;;;1.1;;
60718;SDS011;46567;51.660;5.824;2023-05-16T16:57:02;5.2;;;1.4;;
60718;SDS011;46567;51.660;5.824;2023-05-16T17:02:02;5.8;;;1.1;;
60718;SDS011;46567;51.660;5.824;2023-05-16T17:07:02;4.3;;;1.2;;
60718;SDS011;46567;51.660;5.824;2023-05-16T17:12:02;4.3;;;1.3;;
60718;SDS011;46567;51.660;5.824;2023-05-16T17:17:02;7.0;;;2.0;;
60718;SDS011;46567;51.660;5.824;2023-05-16T17:22:02;4.9;;;1.5;;
60718;SDS011;46567;51.660;5.824;2023-05-16T17:27:02;6.3;;;1.8;;
60718;SDS011;46567;51.660;5.824;2023-05-16T17:32:02;4.8;;;1.6;;
60718;SDS011;46567;51.660;5.824;2023-05-16T17:37:02;3.9;;;1.2;;
60718;SDS011;46567;51.660;5.824;2023-05-16T17:42:02;3.9;;;1.0;;
60718;SDS011;46567;51.660;5.824;2023-05-16T17:47:02;5.1;;;1.8;;
60718;SDS011;46567;51.660;5.824;2023-05-16T17:52:02;4.1;;;1.3;;
60718;SDS011;46567;51.660;5.824;2023-05-16T17:57:02;6.5;;;1.5;;
60718;SDS011;46567;51.660;5.824;2023-05-16T18:02:02;5.1;;;1.3;;
60718;SDS011;46567;51.660;5.824;2023-05-16T18:07:02;5.9;;;1.6;;
60718;SDS011;46567;51.660;5.824;2023-05-16T18:12:02;5.1;;;1.4;;
60718;SDS011;46567;51.660;5.824;2023-05-16T18:17:02;4.0;;;1.5;;
60718;SDS011;46567;51.660;5.824;2023-05-16T18:22:02;3.1;;;1.2;;
60718;SDS011;46567;51.660;5.824;2023-05-16T18:27:02;4.1;;;1.5;;
60718;SDS011;46567;51.660;5.824;2023-05-16T18:32:02;5.7;;;1.7;;
60718;SDS011;46567;51.660;5.824;2023-05-16T18:37:02;3.5;;;1.5;;
60718;SDS011;46567;51.660;5.824;2023-05-16T18:42:02;5.0;;;1.7;;
60718;SDS011;46567;51.660;5.824;2023-05-16T18:47:02;3.8;;;1.8;;
60718;SDS011;46567;51.660;5.824;2023-05-16T18:52:02;4.6;;;1.7;;
60718;SDS011;46567;51.660;5.824;2023-05-16T18:57:02;2.4;;;1.4;;
60718;SDS011;46567;51.660;5.824;2023-05-16T19:02:02;2.6;;;1.8;;
60718;SDS011;46567;51.660;5.824;2023-05-16T19:07:02;3.4;;;1.8;;
60718;SDS011;46567;51.660;5.824;2023-05-16T19:12:02;6.0;;;2.2;;
60718;SDS011;46567;51.660;5.824;2023-05-16T19:17:02;2.9;;;1.8;;
60718;SDS011;46567;51.660;5.824;2023-05-16T19:22:02;5.1;;;2.1;;
60718;SDS011;46567;51.660;5.824;2023-05-16T19:27:02;5.5;;;2.3;;
60718;SDS011;46567;51.660;5.824;2023-05-16T19:32:02;3.8;;;2.1;;
60718;SDS011;46567;51.660;5.824;2023-05-16T19:37:02;5.5;;;3.7;;
60718;SDS011;46567;51.660;5.824;2023-05-16T19:42:02;5.2;;;2.3;;
60718;SDS011;46567;51.660;5.824;2023-05-16T19:47:02;3.8;;;2.2;;
60718;SDS011;46567;51.660;5.824;2023-05-16T19:52:02;4.0;;;2.2;;
60718;SDS011;46567;51.660;5.824;2023-05-16T19:57:02;4.9;;;2.4;;
60718;SDS011;46567;51.660;5.824;2023-05-16T20:02:02;4.5;;;2.1;;
60718;SDS011;46567;51.660;5.824;2023-05-16T20:07:02;3.9;;;2.2;;
60718;SDS011;46567;51.660;5.824;2023-05-16T20:12:02;4.9;;;2.4;;
60718;SDS011;46567;51.660;5.824;2023-05-16T20:17:02;5.3;;;2.6;;
60718;SDS011;46567;51.660;5.824;2023-05-16T20:22:02;5.9;;;2.9;;
60718;SDS011;46567;51.660;5.824;2023-05-16T20:27:02;5.7;;;2.9;;
60718;SDS011;46567;51.660;5.824;2023-05-16T20:32:02;5.4;;;2.7;;
60718;SDS011;46567;51.660;5.824;2023-05-16T20:37:02;4.9;;;3.0;;
60718;SDS011;46567;51.660;5.824;2023-05-16T20:42:02;5.8;;;2.6;;
60718;SDS011;46567;51.660;5.824;2023-05-16T20:47:02;4.9;;;2.6;;
60718;SDS011;46567;51.660;5.824;2023-05-16T20:52:02;3.9;;;2.7;;
60718;SDS011;46567;51.660;5.824;2023-05-16T20:57:02;8.5;;;3.1;;
60718;SDS011;46567;51.660;5.824;2023-05-16T21:02:02;3.9;;;2.6;;
60718;SDS011;46567;51.660;5.824;2023-05-16T21:07:02;4.4;;;3.2;;
60718;SDS011;46567;51.660;5.824;2023-05-16T21:12:02;4.6;;;3.5;;
60718;SDS011;46567;51.660;5.824;2023-05-16T21:17:02;6.6;;;3.4;;
60718;SDS011;46567;51.660;5.824;2023-05-16T21:22:02;5.1;;;3.4;;
60718;SDS011;46567;51.660;5.824;2023-05-16T21:27:02;6.8;;;4.0;;
60718;SDS011;46567;51.660;5.824;2023-05-16T21:32:02;5.7;;;3.6;;
60718;SDS011;46567;51.660;5.824;2023-05-16T21:37:02;7.3;;;3.2;;
60718;SDS011;46567;51.660;5.824;2023-05-16T21:42:02;5.6;;;3.1;;
60718;SDS011;46567;51.660;5.824;2023-05-16T21:47:02;7.0;;;2.6;;
60718;SDS011;46567;51.660;5.824;2023-05-16T21:52:02;10.6;;;2.4;;
60718;SDS011;46567;51.660;5.824;2023-05-16T21:57:02;8.3;;;2.3;;
60718;SDS011;46567;51.660;5.824;2023-05-16T22:02:02;7.2;;;2.3;;
60718;SDS011;46567;51.660;5.824;2023-05-16T22:07:02;7.0;;;2.3;;
60718;SDS011;46567;51.660;5.824;2023-05-16T22:12:02;7.1;;;2.2;;
60718;SDS011;46567;51.660;5.824;2023-05-16T22:17:02;11.1;;;2.6;;
60718;SDS011;46567;51.660;5.824;2023-05-16T22:22:02;8.2;;;2.9;;
60718;SDS011;46567;51.660;5.824;2023-05-16T22:27:02;8.2;;;2.8;;
60718;SDS011;46567;51.660;5.824;2023-05-16T22:32:02;6.0;;;2.8;;
60718;SDS011;46567;51.660;5.824;2023-05-16T22:37:02;5.3;;;2.4;;
60718;SDS011;46567;51.660;5.824;2023-05-16T22:42:02;4.4;;;2.4;;
60718;SDS011;46567;51.660;5.824;2023-05-16T22:47:02;7.7;;;2.8;;
60718;SDS011;46567;51.660;5.824;2023-05-16T22:52:02;7.8;;;3.5;;
60718;SDS011;46567;51.660;5.824;2023-05-16T22:57:02;11.1;;;3.7;;
60718;SDS011;46567;51.660;5.824;2023-05-16T23:02:02;8.2;;;3.4;;
60718;SDS011;46567;51.660;5.824;2023-05-16T23:07:02;6.7;;;3.0;;
60718;SDS011;46567;51.660;5.824;2023-05-16T23:12:02;11.6;;;3.3;;
60718;SDS011;46567;51.660;5.824;2023-05-16T23:17:02;13.8;;;4.0;;
60718;SDS011;46567;51.660;5.824;2023-05-16T23:22:02;16.7;;;4.2;;
60718;SDS011;46567;51.660;5.824;2023-05-16T23:27:02;10.7;;;3.4;;
60718;SDS011;46567;51.660;5.824;2023-05-16T23:32:02;8.4;;;3.4;;
60718;SDS011;46567;51.660;5.824;2023-05-16T23:37:02;9.7;;;3.1;;
60718;SDS011;46567;51.660;5.824;2023-05-16T23:42:02;10.6;;;3.6;;
60718;SDS011;46567;51.660;5.824;2023-05-16T23:47:02;8.1;;;3.1;;
60718;SDS011;46567;51.660;5.824;2023-05-16T23:52:02;10.6;;;3.7;;
60718;SDS011;46567;51.660;5.824;2023-05-16T23:57:02;9.0;;;3.8;;
